Portada
METAR-TAF:

METAR-TAF

Aeroports :

Farmington Regional Airport

Farmington, Missouri, Estats Units d'Amèrica

latitud: 37-46N, longitud: 090-26W, altitud: 288 m

Observació

L'informe es va fer fa 43 minuts, a les 16:56 UTC
Vent 5 kt del Sud
Temperatura 28°C
Humitat 58%
Pressió 1027 hPa
Visibilitat: 16.1 km
Escasses núvols a una alçada de 4100 ft
Núvols disperses a una alçada de 5000 ft

METAR: KFAM 201656Z AUTO 18005KT 10SM FEW041 SCT050 28/19 A3033 RMK AO2 SLP271 T02830194

Hora: 12:39 (17:39 UTC)


TAF: manca

Observacions i pronòstics meteorològics de més de 4000 aeroports (METAR i TAF).

Les estacions disponibles són els punts grocs i vermells al mapa.

Posi el ratolí al punt desitjat per veure el nom de l'estació.

Feu clic per veure les observacions i els pronòstics meteorològics.

Per canviar el mapa: feu clic els botons verds amb una creu de color negre per apropar; al botó verd amb un guió per allunyar la imatge; o en les fletxes verdes per a mapes adjacents.


METAR-TAF: